SAOU/LUQ METAR and TAF weather

Enter ICAO airport designator
Station Type Date Time Source
SAOU METAR 2020/07/23 20:50 UTC NOAA

SAOU 232050Z 23012KT 9999 BKN018 03/02 Q1021 REDZ RMK ESTIMATED WIND


Station Type Date Time Source
SAOU Decoded METAR 2020/07/23 20:50 UTC NOAA

San Luis Aerodrome, Argentina (SAOU) 33-16S 066-21W 713M
Jul 23, 2020 - 04:50 PM EDT / 2020.07.23 2050 UTC
Wind: from the SW (230 degrees) at 14 MPH (12 KT):0
Visibility: greater than 7 mile(s):0
Sky conditions: mostly cloudy
Temperature: 37 F (3 C)
Dew Point: 35 F (2 C)
Relative Humidity: 93%
Pressure (altimeter): 30.15 in. Hg (1021 hPa)
ob: SAOU 232050Z 23012KT 9999 BKN018 03/02 Q1021 REDZ RMK ESTIMATED WIND
cycle: 21

Station Type Date Time Source
SAOU TAF 2020/06/11 00:21 UTC NOAA

TAF SAOU 112300Z 1200/1224 23005KT 9999 FEW030 SCT080 TX14/1219Z TN08/1209Z
BECMG 1210/1212 14015KT 9999 SCT030 SCT070

Example: see airport list